createdAt,value
2022-11-03T00:01:13.596Z,101032.14
2022-11-03T00:04:03.733Z,101033.98
2022-11-03T00:06:54.745Z,101026.18
2022-11-03T00:09:45.436Z,101039.77
2022-11-03T00:12:36.138Z,101052.56
2022-11-03T00:15:26.332Z,101046.59
2022-11-03T00:18:16.518Z,101051.14
2022-11-03T00:21:08.140Z,101055.05
2022-11-03T00:23:58.737Z,101060.41
2022-11-03T00:26:49.541Z,101062.48
2022-11-03T00:29:39.730Z,101060.84
2022-11-03T00:32:30.326Z,101057.78
2022-11-03T00:35:20.514Z,101062.53
2022-11-03T00:38:10.501Z,101065.20
2022-11-03T00:41:01.709Z,101061.08
2022-11-03T00:43:52.266Z,101062.12
2022-11-03T00:46:42.296Z,101062.34
2022-11-03T00:49:32.481Z,101068.93
2022-11-03T00:52:22.470Z,101066.25
2022-11-03T00:55:13.063Z,101069.16
2022-11-03T00:58:03.456Z,101079.03
2022-11-03T01:00:59.484Z,101085.42
2022-11-03T01:04:04.112Z,101088.94
2022-11-03T01:06:55.457Z,101076.78
2022-11-03T01:09:46.164Z,101079.45
2022-11-03T01:12:36.930Z,101080.48
2022-11-03T01:15:27.116Z,101077.81
2022-11-03T01:18:16.872Z,101078.03
2022-11-03T01:21:07.701Z,101077.20
2022-11-03T01:23:57.887Z,101080.72
2022-11-03T01:26:48.077Z,101079.88
2022-11-03T01:29:38.363Z,101085.45
2022-11-03T01:32:29.683Z,101079.27
2022-11-03T01:35:20.278Z,101077.42
2022-11-03T01:38:10.673Z,101074.95
2022-11-03T01:41:02.501Z,101077.63
2022-11-03T01:44:06.624Z,101078.66
2022-11-03T01:46:59.602Z,101067.56
2022-11-03T01:49:51.337Z,101071.05
2022-11-03T01:52:44.434Z,101076.63
2022-11-03T01:55:36.609Z,101083.81
2022-11-03T01:58:29.112Z,101082.17
2022-11-03T02:01:19.676Z,101080.33
2022-11-03T02:04:12.425Z,101086.72
2022-11-03T02:07:06.437Z,101085.88
2022-11-03T02:09:57.152Z,101093.11
2022-11-03T02:12:48.111Z,101093.11
2022-11-03T02:15:39.577Z,101094.14
2022-11-03T02:18:35.298Z,101100.53
2022-11-03T02:21:27.976Z,101108.75
2022-11-03T02:24:24.773Z,101111.66
2022-11-03T02:27:15.378Z,101111.66
2022-11-03T02:30:05.933Z,101113.49
2022-11-03T02:32:59.244Z,101120.49
2022-11-03T02:35:53.160Z,101125.23
2022-11-03T02:38:46.947Z,101121.94
2022-11-03T02:41:38.767Z,101128.33
2022-11-03T02:44:30.344Z,101124.00
2022-11-03T02:47:22.488Z,101130.39
2022-11-03T02:50:14.003Z,101128.13
2022-11-03T02:53:04.778Z,101128.35
2022-11-03T02:56:00.451Z,101122.16
2022-11-03T02:59:08.111Z,101117.84
2022-11-03T03:02:11.514Z,101132.25
2022-11-03T03:05:32.522Z,101138.63
2022-11-03T03:12:07.169Z,101146.05
2022-11-03T03:21:28.360Z,101150.58
2022-11-03T03:30:35.239Z,101162.09
2022-11-03T03:36:33.742Z,101163.92
2022-11-03T03:39:30.688Z,101163.09
2022-11-03T03:42:21.956Z,101166.80
2022-11-03T03:45:14.761Z,101166.98
2022-11-03T03:48:06.551Z,101175.39
2022-11-03T03:50:58.098Z,101180.11
2022-11-03T03:53:51.384Z,101167.73
2022-11-03T03:56:43.802Z,101168.75
2022-11-03T03:59:34.299Z,101173.03
2022-11-03T04:02:25.266Z,101168.70
2022-11-03T04:05:16.108Z,101175.65
2022-11-03T04:08:08.479Z,101197.81
2022-11-03T04:11:16.966Z,101196.15
2022-11-03T04:14:25.189Z,101191.15
2022-11-03T04:17:38.392Z,101188.45
2022-11-03T04:20:46.921Z,101179.37
2022-11-03T04:23:37.517Z,101168.24
2022-11-03T04:26:29.013Z,101166.77
2022-11-03T04:29:19.741Z,101164.71
2022-11-03T04:32:14.550Z,101168.79
2022-11-03T04:35:08.918Z,101174.48
2022-11-03T04:38:02.469Z,101174.07
2022-11-03T04:40:55.163Z,101178.15
2022-11-03T04:43:47.207Z,101181.38
2022-11-03T04:46:37.664Z,101189.15
2022-11-03T04:49:27.849Z,101194.88
2022-11-03T04:52:19.063Z,101199.16
2022-11-03T04:55:11.965Z,101194.20
2022-11-03T04:58:06.316Z,101199.30
2022-11-03T05:00:58.618Z,101205.02
2022-11-03T05:03:50.282Z,101208.06
2022-11-03T05:06:40.658Z,101208.45
2022-11-03T05:09:31.508Z,101209.01
2022-11-03T05:12:22.971Z,101212.05
2022-11-03T05:15:28.216Z,101213.45
2022-11-03T05:18:20.224Z,101223.87
2022-11-03T05:21:11.689Z,101218.91
2022-11-03T05:24:04.223Z,101221.16
2022-11-03T05:26:55.578Z,101234.86
2022-11-03T05:29:46.537Z,101234.23
2022-11-03T05:32:36.721Z,101240.74
2022-11-03T05:35:27.524Z,101253.44
2022-11-03T05:38:18.389Z,101254.66
2022-11-03T05:41:15.976Z,101261.00
2022-11-03T05:44:16.319Z,101263.03
2022-11-03T05:47:10.691Z,101265.06
2022-11-03T05:50:08.816Z,101268.53
2022-11-03T05:53:01.628Z,101274.88
2022-11-03T05:55:52.227Z,101284.73
2022-11-03T05:58:44.595Z,101294.38
2022-11-03T06:01:36.172Z,101305.05
2022-11-03T06:04:29.871Z,101300.36
2022-11-03T06:07:23.465Z,101299.34
2022-11-03T06:10:22.669Z,101299.98
2022-11-03T06:13:16.140Z,101296.94
2022-11-03T06:16:08.211Z,101293.06
2022-11-03T06:19:01.627Z,101288.36
2022-11-03T06:21:54.133Z,101289.84
2022-11-03T06:24:45.872Z,101292.13
2022-11-03T06:27:36.760Z,101297.91
2022-11-03T06:30:29.314Z,101310.86
2022-11-03T06:33:23.677Z,101307.01
2022-11-03T06:36:15.932Z,101324.92
2022-11-03T06:39:19.694Z,101327.22
2022-11-03T06:42:15.782Z,101323.80
2022-11-03T06:45:13.748Z,101316.22
2022-11-03T06:48:04.430Z,101321.64
2022-11-03T06:50:55.232Z,101325.59
2022-11-03T06:53:46.243Z,101319.48
2022-11-03T06:56:37.428Z,101324.24
2022-11-03T06:59:28.052Z,101327.80
2022-11-03T07:02:34.318Z,101337.91
2022-11-03T07:05:27.872Z,101340.66
2022-11-03T07:08:22.552Z,101334.56
2022-11-03T07:11:16.796Z,101343.24
2022-11-03T07:14:13.152Z,101342.71
2022-11-03T07:17:05.034Z,101340.08
2022-11-03T07:19:55.416Z,101342.61
2022-11-03T07:22:47.403Z,101345.14
2022-11-03T07:25:39.287Z,101354.02
2022-11-03T07:28:32.482Z,101348.53
2022-11-03T07:31:25.400Z,101346.73
2022-11-03T07:34:17.092Z,101340.84
2022-11-03T07:37:07.038Z,101337.61
2022-11-03T07:39:59.842Z,101343.64
2022-11-03T07:42:50.237Z,101345.53
2022-11-03T07:45:44.049Z,101341.48
2022-11-03T07:48:37.090Z,101332.05
2022-11-03T07:51:30.045Z,101334.14
2022-11-03T07:54:21.639Z,101323.72
2022-11-03T07:57:16.838Z,101322.91
2022-11-03T08:00:10.526Z,101328.50
2022-11-03T08:03:05.200Z,101322.55
2022-11-03T08:05:56.988Z,101320.47
2022-11-03T08:08:48.561Z,101325.21
2022-11-03T08:11:38.955Z,101322.14
2022-11-03T08:14:30.767Z,101326.44
2022-11-03T08:17:22.814Z,101318.19
2022-11-03T08:20:14.022Z,101328.70
2022-11-03T08:26:14.059Z,101322.31
2022-11-03T08:29:04.266Z,101312.20
2022-11-03T08:31:54.227Z,101317.33
2022-11-03T08:34:44.375Z,101310.70
2022-11-03T08:37:34.199Z,101311.07
2022-11-03T08:40:24.911Z,101315.16
2022-11-03T08:43:16.419Z,101315.52
2022-11-03T08:46:15.892Z,101313.41
2022-11-03T08:49:07.653Z,101318.52
2022-11-03T08:51:58.455Z,101314.55
2022-11-03T08:54:48.737Z,101303.55
2022-11-03T08:57:39.443Z,101309.27
2022-11-03T09:00:30.254Z,101309.87
2022-11-03T09:03:21.015Z,101305.64
2022-11-03T09:06:12.266Z,101303.52
2022-11-03T09:12:14.553Z,101299.84
2022-11-03T09:15:04.569Z,101299.56
2022-11-03T09:17:55.958Z,101295.55
2022-11-03T09:20:47.583Z,101296.66
2022-11-03T09:23:37.969Z,101290.55
2022-11-03T09:26:28.887Z,101285.47
2022-11-03T09:29:19.438Z,101281.47
2022-11-03T09:32:10.180Z,101277.66
2022-11-03T09:35:00.148Z,101278.76
2022-11-03T09:37:50.353Z,101281.97
2022-11-03T09:40:41.621Z,101278.97
2022-11-03T09:43:32.773Z,101267.30
2022-11-03T09:46:23.402Z,101265.33
2022-11-03T09:49:15.404Z,101267.34
2022-11-03T09:52:06.662Z,101263.95
2022-11-03T09:54:57.081Z,101265.97
2022-11-03T09:57:49.043Z,101264.68
2022-11-03T10:00:39.896Z,101265.86
2022-11-03T10:03:32.543Z,101261.91
2022-11-03T10:06:22.681Z,101262.49
2022-11-03T10:09:17.571Z,101255.59
2022-11-03T10:12:10.693Z,101256.98
2022-11-03T10:15:00.920Z,101252.78
2022-11-03T10:17:52.306Z,101248.58
2022-11-03T10:20:43.504Z,101252.84
2022-11-03T10:23:33.483Z,101236.80
2022-11-03T10:26:24.506Z,101244.17
2022-11-03T10:29:23.834Z,101233.77
2022-11-03T10:32:30.116Z,101238.44
2022-11-03T10:35:36.175Z,101236.70
2022-11-03T10:38:38.313Z,101236.09
2022-11-03T10:41:30.691Z,101224.84
2022-11-03T10:44:22.305Z,101226.84
2022-11-03T10:47:23.965Z,101222.04
2022-11-03T10:50:25.922Z,101223.79
2022-11-03T10:53:19.286Z,101213.70
2022-11-03T10:56:10.507Z,101213.33
2022-11-03T10:59:02.135Z,101211.55
2022-11-03T11:01:53.478Z,101202.17
2022-11-03T11:04:43.989Z,101203.91
2022-11-03T11:07:35.385Z,101196.15
2022-11-03T11:10:26.372Z,101191.11
2022-11-03T11:13:32.148Z,101179.87
2022-11-03T11:16:44.016Z,101176.44
2022-11-03T11:19:54.891Z,101180.30
2022-11-03T11:22:45.124Z,101171.14
2022-11-03T11:26:05.577Z,101163.88
2022-11-03T11:29:10.169Z,101165.74
2022-11-03T11:32:01.521Z,101169.28
2022-11-03T11:34:52.884Z,101152.03
2022-11-03T11:37:43.796Z,101148.59
2022-11-03T11:40:47.650Z,101143.28
2022-11-03T11:43:39.477Z,101139.61
2022-11-03T11:46:41.340Z,101133.50
2022-11-03T11:49:31.433Z,101130.31
2022-11-03T11:52:21.719Z,101130.06
2022-11-03T11:55:18.352Z,101121.73
2022-11-03T11:58:15.335Z,101121.16
2022-11-03T12:01:06.214Z,101122.53
2022-11-03T12:03:58.866Z,101124.26
2022-11-03T12:06:49.380Z,101113.80
2022-11-03T12:09:40.485Z,101114.11
2022-11-03T12:12:37.853Z,101104.72
2022-11-03T12:15:45.071Z,101104.23
2022-11-03T12:18:40.718Z,101103.73
2022-11-03T12:21:49.643Z,101103.25
2022-11-03T12:24:51.333Z,101101.92
2022-11-03T12:27:44.765Z,101099.56
2022-11-03T12:30:39.719Z,101094.16
2022-11-03T12:33:30.579Z,101093.89
2022-11-03T12:36:20.976Z,101092.83
2022-11-03T12:39:12.039Z,101094.23
2022-11-03T12:42:03.471Z,101086.13
2022-11-03T12:44:54.813Z,101085.56
2022-11-03T12:47:45.009Z,101096.10
2022-11-03T12:50:38.268Z,101096.10
2022-11-03T12:53:29.275Z,101092.83
2022-11-03T12:56:20.077Z,101090.63
2022-11-03T12:59:11.499Z,101091.69
2022-11-03T13:02:01.990Z,101088.42
2022-11-03T13:04:52.512Z,101087.84
2022-11-03T13:07:43.915Z,101084.34
2022-11-03T13:10:34.098Z,101076.48
2022-11-03T13:13:24.284Z,101080.02
2022-11-03T13:16:14.878Z,101086.47
2022-11-03T13:19:04.909Z,101077.80
2022-11-03T13:21:56.486Z,101072.41
2022-11-03T13:24:50.274Z,101068.30
2022-11-03T13:27:44.096Z,101075.83
2022-11-03T13:30:36.390Z,101068.22
2022-11-03T13:33:31.645Z,101067.91
2022-11-03T13:36:22.672Z,101063.23
2022-11-03T13:39:14.412Z,101067.48
2022-11-03T13:42:04.602Z,101059.08
2022-11-03T13:48:30.052Z,101074.05
2022-11-03T13:51:00.736Z,101063.17
2022-11-03T14:00:16.924Z,101059.64
2022-11-03T14:06:20.727Z,101057.53
2022-11-03T14:09:10.915Z,101056.06
2022-11-03T14:12:19.542Z,101058.67
2022-11-03T14:15:11.045Z,101057.75
2022-11-03T14:18:00.941Z,101047.92
2022-11-03T14:20:51.128Z,101050.52
2022-11-03T14:23:41.342Z,101056.88
2022-11-03T14:26:42.247Z,101051.64
2022-11-03T14:29:35.414Z,101050.72
2022-11-03T14:32:27.856Z,101047.34
2022-11-03T14:35:19.276Z,101047.49
2022-11-03T14:38:09.257Z,101050.31
2022-11-03T14:41:18.289Z,101044.48
2022-11-03T14:44:08.690Z,101049.63
2022-11-03T14:47:01.738Z,101048.36
2022-11-03T14:49:52.335Z,101044.97
2022-11-03T14:52:43.346Z,101044.27
2022-11-03T14:55:35.171Z,101042.99
2022-11-03T14:58:25.153Z,101047.89
2022-11-03T15:01:15.049Z,101045.55
2022-11-03T15:04:08.081Z,101047.75
2022-11-03T15:06:58.589Z,101036.75
2022-11-03T15:09:50.533Z,101040.03
2022-11-03T15:12:41.015Z,101038.73
2022-11-03T15:15:31.201Z,101037.61
2022-11-03T15:18:21.220Z,101045.42
2022-11-03T15:21:13.220Z,101035.23
2022-11-03T15:27:13.871Z,101040.07
2022-11-03T15:30:04.450Z,101039.55
2022-11-03T15:32:56.907Z,101038.22
2022-11-03T15:35:47.490Z,101043.55
2022-11-03T15:38:37.899Z,101033.33
2022-11-03T15:41:27.887Z,101030.35
2022-11-03T15:44:18.276Z,101039.36
2022-11-03T15:47:08.525Z,101044.42
2022-11-03T15:49:58.454Z,101036.27
2022-11-03T15:52:50.127Z,101033.52
2022-11-03T15:55:41.319Z,101029.68
2022-11-03T15:58:34.665Z,101034.96
2022-11-03T16:01:26.586Z,101030.31
2022-11-03T16:04:17.526Z,101028.34
2022-11-03T16:07:08.858Z,101030.45
2022-11-03T16:09:59.413Z,101030.55
2022-11-03T16:12:49.789Z,101025.00
2022-11-03T16:15:39.985Z,101020.34
2022-11-03T16:18:30.372Z,101026.18
2022-11-03T16:21:20.766Z,101030.57
2022-11-03T16:24:11.566Z,101033.31
2022-11-03T16:27:02.992Z,101032.94
2022-11-03T16:29:56.057Z,101043.47
2022-11-03T16:32:46.640Z,101037.73
2022-11-03T16:35:38.876Z,101035.70
2022-11-03T16:38:28.682Z,101047.89
2022-11-03T16:41:19.659Z,101039.85
2022-11-03T16:44:10.055Z,101038.42
2022-11-03T16:47:00.246Z,101036.99
2022-11-03T16:49:53.173Z,101035.55
2022-11-03T16:52:43.488Z,101034.12
2022-11-03T16:55:33.678Z,101030.80
2022-11-03T16:58:23.865Z,101035.55
2022-11-03T17:01:17.067Z,101029.97
2022-11-03T17:04:08.613Z,101026.69
2022-11-03T17:06:59.344Z,101030.36
2022-11-03T17:09:50.151Z,101030.76
2022-11-03T17:12:40.335Z,101030.95
2022-11-03T17:15:30.731Z,101028.45
2022-11-03T17:18:21.991Z,101030.28
2022-11-03T17:21:12.131Z,101034.30
2022-11-03T17:24:04.368Z,101035.50
2022-11-03T17:26:57.731Z,101034.02
2022-11-03T17:29:49.981Z,101033.16
2022-11-03T17:32:42.312Z,101027.15
2022-11-03T17:35:38.948Z,101028.96
2022-11-03T17:38:30.925Z,101032.63
2022-11-03T17:41:20.861Z,101021.27
2022-11-03T17:44:12.733Z,101028.23
2022-11-03T17:47:03.283Z,101030.84
2022-11-03T17:49:53.883Z,101031.83
2022-11-03T17:52:45.693Z,101025.41
2022-11-03T17:55:36.121Z,101029.87
2022-11-03T17:58:29.401Z,101024.68
2022-11-03T18:01:23.245Z,101020.12
2022-11-03T18:07:17.334Z,101010.37
2022-11-03T18:10:08.643Z,101015.66
2022-11-03T18:13:20.238Z,101014.77
2022-11-03T18:16:15.094Z,101010.17
2022-11-03T18:19:05.767Z,101008.27
2022-11-03T18:21:58.380Z,101004.52
2022-11-03T18:24:49.388Z,101004.47
2022-11-03T18:27:39.783Z,101002.73
2022-11-03T18:30:31.402Z,101001.84
2022-11-03T18:33:23.775Z,101000.13
2022-11-03T18:36:15.395Z,101006.84
2022-11-03T18:39:06.268Z,101004.94
2022-11-03T18:41:57.278Z,100996.69
2022-11-03T18:44:47.258Z,101003.77
2022-11-03T18:47:37.448Z,101000.00
2022-11-03T18:50:28.049Z,100990.94
2022-11-03T18:53:19.939Z,100992.50
2022-11-03T18:56:13.187Z,100992.23
2022-11-03T18:59:04.755Z,100986.84
2022-11-03T19:01:54.850Z,100987.38
2022-11-03T19:04:45.336Z,100986.30
2022-11-03T19:07:36.548Z,100988.85
2022-11-03T19:10:26.585Z,100981.44
2022-11-03T19:13:18.237Z,100991.80
2022-11-03T19:16:13.772Z,100992.16
2022-11-03T19:19:03.856Z,100989.23
2022-11-03T19:21:54.453Z,100984.28
2022-11-03T19:24:45.888Z,100986.30
2022-11-03T19:27:38.511Z,100988.64
2022-11-03T19:30:28.792Z,100986.34
2022-11-03T19:33:22.487Z,100986.06
2022-11-03T19:36:12.817Z,100989.09
2022-11-03T19:39:04.611Z,100992.11
2022-11-03T19:42:12.598Z,100992.63
2022-11-03T19:45:03.821Z,100994.00
2022-11-03T19:48:25.393Z,100986.39
2022-11-03T19:51:06.920Z,100991.42
2022-11-03T19:53:57.987Z,100984.81
2022-11-03T19:56:48.319Z,100990.65
2022-11-03T19:59:39.125Z,100990.20
2022-11-03T20:02:29.688Z,100995.02
2022-11-03T20:05:20.180Z,101000.89
2022-11-03T20:08:14.543Z,100998.94
2022-11-03T20:11:05.926Z,100994.15
2022-11-03T20:13:56.414Z,100987.54
2022-11-03T20:16:46.398Z,100986.25
2022-11-03T20:19:37.314Z,100991.91
2022-11-03T20:22:29.059Z,100996.77
2022-11-03T20:25:22.080Z,100998.28
2022-11-03T20:28:18.263Z,100992.52
2022-11-03T20:31:09.421Z,100989.55
2022-11-03T20:34:00.841Z,100992.72
2022-11-03T20:36:52.038Z,101001.22
2022-11-03T20:39:43.473Z,100995.62
2022-11-03T20:42:33.656Z,100994.13
2022-11-03T20:45:24.661Z,100995.66
2022-11-03T20:48:16.288Z,100992.52
2022-11-03T20:51:07.180Z,100992.20
2022-11-03T20:53:59.559Z,100991.75
2022-11-03T20:56:50.127Z,100993.09
2022-11-03T20:59:41.959Z,100991.59
2022-11-03T21:02:32.225Z,100992.78
2022-11-03T21:05:23.618Z,100989.63
2022-11-03T21:08:14.367Z,100994.47
2022-11-03T21:11:18.272Z,100986.02
2022-11-03T21:14:14.902Z,100981.25
2022-11-03T21:17:22.199Z,100973.80
2022-11-03T21:20:15.051Z,100967.84
2022-11-03T21:23:07.920Z,100965.53
2022-11-03T21:25:59.528Z,100962.41
2022-11-03T21:28:49.915Z,100955.61
2022-11-03T21:31:41.383Z,100960.45
2022-11-03T21:34:31.316Z,100955.48
2022-11-03T21:37:21.709Z,100950.68
2022-11-03T21:40:22.140Z,100942.27
2022-11-03T21:46:46.982Z,100940.79
2022-11-03T21:49:52.641Z,100936.67
2022-11-03T21:52:43.100Z,100932.52
2022-11-03T21:55:33.086Z,100931.05
2022-11-03T21:58:23.272Z,100927.75
2022-11-03T22:01:13.787Z,100922.77
2022-11-03T22:04:04.469Z,100918.80
2022-11-03T22:06:58.345Z,100918.95
2022-11-03T22:09:48.735Z,100912.34
2022-11-03T22:12:39.185Z,100909.03
2022-11-03T22:15:46.934Z,100914.52
2022-11-03T22:18:37.738Z,100907.72
2022-11-03T22:21:46.966Z,100911.36
2022-11-03T22:24:55.177Z,100908.90
2022-11-03T22:27:45.463Z,100910.05
2022-11-03T22:30:57.875Z,100897.98
2022-11-03T22:34:05.473Z,100904.43
2022-11-03T22:36:56.228Z,100901.13
2022-11-03T22:40:04.697Z,100892.52
2022-11-03T22:43:12.910Z,100895.51
2022-11-03T22:46:03.297Z,100880.62
2022-11-03T22:48:53.688Z,100886.09
2022-11-03T22:51:45.105Z,100884.59
2022-11-03T22:54:35.798Z,100881.95
2022-11-03T22:57:25.889Z,100881.29
2022-11-03T23:00:20.586Z,100883.28
2022-11-03T23:03:11.191Z,100881.47
2022-11-03T23:06:02.854Z,100879.81
2022-11-03T23:08:54.854Z,100879.81
2022-11-03T23:11:44.822Z,100883.28
2022-11-03T23:14:48.933Z,100879.81
2022-11-03T23:17:58.578Z,100880.97
2022-11-03T23:21:06.584Z,100879.31
2022-11-03T23:24:14.590Z,100879.65
2022-11-03T23:27:05.800Z,100877.19
2022-11-03T23:29:55.991Z,100881.64
2022-11-03T23:32:46.587Z,100877.34
2022-11-03T23:35:40.249Z,100873.84
2022-11-03T23:38:32.903Z,100864.25
2022-11-03T23:41:24.322Z,100862.59
2022-11-03T23:44:17.376Z,100853.84
2022-11-03T23:47:27.429Z,100850.36
2022-11-03T23:50:18.849Z,100851.20
2022-11-03T23:53:10.326Z,100860.14
2022-11-03T23:56:20.521Z,100848.70
2022-11-03T23:59:11.531Z,100842.60
